sensor_id;sensor_type;location;lat;lon;timestamp;P1;durP1;ratioP1;P2;durP2;ratioP2
26951;SDS011;14507;52.418;13.398;2023-03-01T00:01:58;45.92;;;22.63;;
26951;SDS011;14507;52.418;13.398;2023-03-01T00:04:23;42.03;;;21.80;;
26951;SDS011;14507;52.418;13.398;2023-03-01T00:06:49;46.85;;;21.45;;
26951;SDS011;14507;52.418;13.398;2023-03-01T00:09:15;43.70;;;22.52;;
26951;SDS011;14507;52.418;13.398;2023-03-01T00:11:41;44.38;;;20.92;;
26951;SDS011;14507;52.418;13.398;2023-03-01T00:14:07;44.78;;;22.02;;
26951;SDS011;14507;52.418;13.398;2023-03-01T00:16:34;45.10;;;22.15;;
26951;SDS011;14507;52.418;13.398;2023-03-01T00:19:03;47.88;;;21.88;;
26951;SDS011;14507;52.418;13.398;2023-03-01T00:21:29;46.25;;;22.23;;
26951;SDS011;14507;52.418;13.398;2023-03-01T00:23:55;43.13;;;22.17;;
26951;SDS011;14507;52.418;13.398;2023-03-01T00:26:22;44.85;;;21.55;;
26951;SDS011;14507;52.418;13.398;2023-03-01T00:28:48;39.63;;;20.77;;
26951;SDS011;14507;52.418;13.398;2023-03-01T00:31:15;42.88;;;22.27;;
26951;SDS011;14507;52.418;13.398;2023-03-01T00:33:43;46.78;;;22.58;;
26951;SDS011;14507;52.418;13.398;2023-03-01T00:36:10;42.38;;;21.58;;
26951;SDS011;14507;52.418;13.398;2023-03-01T00:38:39;48.75;;;22.90;;
26951;SDS011;14507;52.418;13.398;2023-03-01T00:43:33;42.92;;;22.05;;
26951;SDS011;14507;52.418;13.398;2023-03-01T00:46:05;44.30;;;22.17;;
26951;SDS011;14507;52.418;13.398;2023-03-01T00:48:32;43.25;;;21.45;;
26951;SDS011;14507;52.418;13.398;2023-03-01T00:51:05;43.72;;;21.45;;
26951;SDS011;14507;52.418;13.398;2023-03-01T00:53:39;50.63;;;22.77;;
26951;SDS011;14507;52.418;13.398;2023-03-01T00:56:05;45.53;;;21.48;;
26951;SDS011;14507;52.418;13.398;2023-03-01T00:58:32;48.87;;;22.40;;
26951;SDS011;14507;52.418;13.398;2023-03-01T01:00:58;41.63;;;21.92;;
26951;SDS011;14507;52.418;13.398;2023-03-01T01:03:24;46.33;;;22.55;;
26951;SDS011;14507;52.418;13.398;2023-03-01T01:05:53;45.17;;;21.60;;
26951;SDS011;14507;52.418;13.398;2023-03-01T01:08:19;44.33;;;21.17;;
26951;SDS011;14507;52.418;13.398;2023-03-01T01:10:46;44.28;;;22.42;;
26951;SDS011;14507;52.418;13.398;2023-03-01T01:13:12;44.83;;;22.15;;
26951;SDS011;14507;52.418;13.398;2023-03-01T01:15:38;47.25;;;22.38;;
26951;SDS011;14507;52.418;13.398;2023-03-01T01:18:04;46.97;;;22.85;;
26951;SDS011;14507;52.418;13.398;2023-03-01T01:20:30;44.75;;;21.90;;
26951;SDS011;14507;52.418;13.398;2023-03-01T01:22:56;41.92;;;21.55;;
26951;SDS011;14507;52.418;13.398;2023-03-01T01:25:22;44.22;;;21.25;;
26951;SDS011;14507;52.418;13.398;2023-03-01T01:27:50;47.75;;;22.38;;
26951;SDS011;14507;52.418;13.398;2023-03-01T01:30:16;40.35;;;19.95;;
26951;SDS011;14507;52.418;13.398;2023-03-01T01:32:42;44.35;;;22.40;;
26951;SDS011;14507;52.418;13.398;2023-03-01T01:35:08;43.10;;;21.83;;
26951;SDS011;14507;52.418;13.398;2023-03-01T01:37:33;45.35;;;22.17;;
26951;SDS011;14507;52.418;13.398;2023-03-01T01:39:59;46.22;;;22.42;;
26951;SDS011;14507;52.418;13.398;2023-03-01T01:42:29;46.70;;;21.52;;
26951;SDS011;14507;52.418;13.398;2023-03-01T01:48:10;40.95;;;20.02;;
26951;SDS011;14507;52.418;13.398;2023-03-01T01:50:41;38.58;;;20.42;;
26951;SDS011;14507;52.418;13.398;2023-03-01T01:53:10;44.53;;;22.25;;
26951;SDS011;14507;52.418;13.398;2023-03-01T01:55:41;55.80;;;25.02;;
26951;SDS011;14507;52.418;13.398;2023-03-01T01:58:11;59.53;;;26.20;;
26951;SDS011;14507;52.418;13.398;2023-03-01T02:00:40;52.20;;;25.42;;
26951;SDS011;14507;52.418;13.398;2023-03-01T02:03:08;52.20;;;25.38;;
26951;SDS011;14507;52.418;13.398;2023-03-01T02:08:15;48.83;;;24.52;;
26951;SDS011;14507;52.418;13.398;2023-03-01T02:10:43;55.50;;;24.90;;
26951;SDS011;14507;52.418;13.398;2023-03-01T02:13:11;48.35;;;23.50;;
26951;SDS011;14507;52.418;13.398;2023-03-01T02:15:37;56.53;;;25.17;;
26951;SDS011;14507;52.418;13.398;2023-03-01T02:18:04;52.78;;;24.42;;
26951;SDS011;14507;52.418;13.398;2023-03-01T02:20:40;47.38;;;23.83;;
26951;SDS011;14507;52.418;13.398;2023-03-01T02:23:17;50.08;;;23.70;;
26951;SDS011;14507;52.418;13.398;2023-03-01T02:25:47;52.03;;;23.10;;
26951;SDS011;14507;52.418;13.398;2023-03-01T02:28:38;49.80;;;23.52;;
26951;SDS011;14507;52.418;13.398;2023-03-01T02:31:06;53.53;;;23.95;;
26951;SDS011;14507;52.418;13.398;2023-03-01T02:33:53;49.78;;;23.65;;
26951;SDS011;14507;52.418;13.398;2023-03-01T02:36:23;48.22;;;23.73;;
26951;SDS011;14507;52.418;13.398;2023-03-01T02:38:55;48.97;;;23.88;;
26951;SDS011;14507;52.418;13.398;2023-03-01T02:41:23;52.60;;;23.70;;
26951;SDS011;14507;52.418;13.398;2023-03-01T02:43:53;46.05;;;22.40;;
26951;SDS011;14507;52.418;13.398;2023-03-01T02:46:23;48.83;;;22.58;;
26951;SDS011;14507;52.418;13.398;2023-03-01T02:48:50;47.63;;;22.27;;
26951;SDS011;14507;52.418;13.398;2023-03-01T02:56:35;52.30;;;22.85;;
26951;SDS011;14507;52.418;13.398;2023-03-01T02:59:01;46.60;;;21.65;;
26951;SDS011;14507;52.418;13.398;2023-03-01T03:01:27;46.10;;;22.17;;
26951;SDS011;14507;52.418;13.398;2023-03-01T03:04:06;50.92;;;23.77;;
26951;SDS011;14507;52.418;13.398;2023-03-01T03:06:34;45.90;;;22.25;;
26951;SDS011;14507;52.418;13.398;2023-03-01T03:09:01;46.13;;;22.05;;
26951;SDS011;14507;52.418;13.398;2023-03-01T03:11:28;46.37;;;22.23;;
26951;SDS011;14507;52.418;13.398;2023-03-01T03:13:53;44.65;;;21.92;;
26951;SDS011;14507;52.418;13.398;2023-03-01T03:16:19;44.45;;;22.40;;
26951;SDS011;14507;52.418;13.398;2023-03-01T03:18:45;47.78;;;22.23;;
26951;SDS011;14507;52.418;13.398;2023-03-01T03:21:12;45.85;;;21.75;;
26951;SDS011;14507;52.418;13.398;2023-03-01T03:23:38;52.63;;;22.25;;
26951;SDS011;14507;52.418;13.398;2023-03-01T03:26:04;45.20;;;21.00;;
26951;SDS011;14507;52.418;13.398;2023-03-01T03:28:31;46.15;;;22.80;;
26951;SDS011;14507;52.418;13.398;2023-03-01T03:30:58;45.28;;;21.85;;
26951;SDS011;14507;52.418;13.398;2023-03-01T03:33:28;46.08;;;21.88;;
26951;SDS011;14507;52.418;13.398;2023-03-01T03:35:57;45.72;;;21.50;;
26951;SDS011;14507;52.418;13.398;2023-03-01T03:38:23;47.00;;;23.35;;
26951;SDS011;14507;52.418;13.398;2023-03-01T03:40:51;50.05;;;23.48;;
26951;SDS011;14507;52.418;13.398;2023-03-01T03:43:26;53.20;;;24.75;;
26951;SDS011;14507;52.418;13.398;2023-03-01T03:45:51;48.85;;;23.27;;
26951;SDS011;14507;52.418;13.398;2023-03-01T03:48:18;48.90;;;23.13;;
26951;SDS011;14507;52.418;13.398;2023-03-01T03:50:55;44.38;;;21.88;;
26951;SDS011;14507;52.418;13.398;2023-03-01T03:53:22;46.00;;;22.88;;
26951;SDS011;14507;52.418;13.398;2023-03-01T03:55:49;45.90;;;23.02;;
26951;SDS011;14507;52.418;13.398;2023-03-01T03:58:17;49.07;;;23.17;;
26951;SDS011;14507;52.418;13.398;2023-03-01T04:00:45;44.08;;;22.05;;
26951;SDS011;14507;52.418;13.398;2023-03-01T04:03:13;43.72;;;22.48;;
26951;SDS011;14507;52.418;13.398;2023-03-01T04:05:40;45.05;;;22.33;;
26951;SDS011;14507;52.418;13.398;2023-03-01T04:08:06;50.80;;;23.50;;
26951;SDS011;14507;52.418;13.398;2023-03-01T04:10:34;50.95;;;23.27;;
26951;SDS011;14507;52.418;13.398;2023-03-01T04:13:02;51.83;;;24.58;;
26951;SDS011;14507;52.418;13.398;2023-03-01T04:15:28;54.05;;;25.50;;
26951;SDS011;14507;52.418;13.398;2023-03-01T04:17:55;49.83;;;25.48;;
26951;SDS011;14507;52.418;13.398;2023-03-01T04:20:24;55.25;;;24.50;;
26951;SDS011;14507;52.418;13.398;2023-03-01T04:23:01;48.83;;;23.80;;
26951;SDS011;14507;52.418;13.398;2023-03-01T04:28:26;47.38;;;24.77;;
26951;SDS011;14507;52.418;13.398;2023-03-01T04:31:01;53.80;;;27.33;;
26951;SDS011;14507;52.418;13.398;2023-03-01T04:33:38;54.35;;;24.65;;
26951;SDS011;14507;52.418;13.398;2023-03-01T04:36:10;52.45;;;25.95;;
26951;SDS011;14507;52.418;13.398;2023-03-01T04:38:37;59.10;;;25.50;;
26951;SDS011;14507;52.418;13.398;2023-03-01T04:41:04;51.13;;;25.23;;
26951;SDS011;14507;52.418;13.398;2023-03-01T04:43:31;53.58;;;25.50;;
26951;SDS011;14507;52.418;13.398;2023-03-01T04:46:07;61.83;;;26.02;;
26951;SDS011;14507;52.418;13.398;2023-03-01T04:48:35;53.88;;;26.05;;
26951;SDS011;14507;52.418;13.398;2023-03-01T04:51:05;58.08;;;27.13;;
26951;SDS011;14507;52.418;13.398;2023-03-01T04:53:31;56.03;;;26.27;;
26951;SDS011;14507;52.418;13.398;2023-03-01T04:55:58;59.17;;;27.30;;
26951;SDS011;14507;52.418;13.398;2023-03-01T04:58:25;58.78;;;26.75;;
26951;SDS011;14507;52.418;13.398;2023-03-01T05:00:52;56.65;;;27.08;;
26951;SDS011;14507;52.418;13.398;2023-03-01T05:03:18;59.28;;;26.92;;
26951;SDS011;14507;52.418;13.398;2023-03-01T05:05:45;59.58;;;27.13;;
26951;SDS011;14507;52.418;13.398;2023-03-01T05:08:12;54.17;;;26.77;;
26951;SDS011;14507;52.418;13.398;2023-03-01T05:10:42;60.95;;;27.00;;
26951;SDS011;14507;52.418;13.398;2023-03-01T05:13:17;64.88;;;27.65;;
26951;SDS011;14507;52.418;13.398;2023-03-01T05:15:56;62.08;;;27.60;;
26951;SDS011;14507;52.418;13.398;2023-03-01T05:18:23;59.13;;;26.02;;
26951;SDS011;14507;52.418;13.398;2023-03-01T05:20:51;67.40;;;28.50;;
26951;SDS011;14507;52.418;13.398;2023-03-01T05:23:17;63.47;;;27.83;;
26951;SDS011;14507;52.418;13.398;2023-03-01T05:25:43;54.70;;;26.20;;
26951;SDS011;14507;52.418;13.398;2023-03-01T05:28:12;57.88;;;26.92;;
26951;SDS011;14507;52.418;13.398;2023-03-01T05:30:38;55.80;;;25.05;;
26951;SDS011;14507;52.418;13.398;2023-03-01T05:33:04;52.33;;;25.38;;
26951;SDS011;14507;52.418;13.398;2023-03-01T05:35:35;54.38;;;25.90;;
26951;SDS011;14507;52.418;13.398;2023-03-01T05:38:01;57.97;;;27.17;;
26951;SDS011;14507;52.418;13.398;2023-03-01T05:40:27;57.83;;;24.83;;
26951;SDS011;14507;52.418;13.398;2023-03-01T05:42:55;53.72;;;24.40;;
26951;SDS011;14507;52.418;13.398;2023-03-01T05:45:22;45.47;;;23.38;;
26951;SDS011;14507;52.418;13.398;2023-03-01T05:50:25;58.97;;;25.85;;
26951;SDS011;14507;52.418;13.398;2023-03-01T05:53:00;59.72;;;26.75;;
26951;SDS011;14507;52.418;13.398;2023-03-01T05:55:29;58.38;;;26.42;;
26951;SDS011;14507;52.418;13.398;2023-03-01T05:57:57;57.13;;;26.00;;
26951;SDS011;14507;52.418;13.398;2023-03-01T06:00:24;55.55;;;24.95;;
26951;SDS011;14507;52.418;13.398;2023-03-01T06:02:50;55.70;;;24.67;;
26951;SDS011;14507;52.418;13.398;2023-03-01T06:05:18;54.13;;;26.15;;
26951;SDS011;14507;52.418;13.398;2023-03-01T06:07:44;58.65;;;26.55;;
26951;SDS011;14507;52.418;13.398;2023-03-01T06:10:10;52.97;;;25.23;;
26951;SDS011;14507;52.418;13.398;2023-03-01T06:12:36;57.45;;;25.70;;
26951;SDS011;14507;52.418;13.398;2023-03-01T06:15:04;53.97;;;24.52;;
26951;SDS011;14507;52.418;13.398;2023-03-01T06:17:32;55.33;;;25.33;;
26951;SDS011;14507;52.418;13.398;2023-03-01T06:20:06;55.58;;;26.65;;
26951;SDS011;14507;52.418;13.398;2023-03-01T06:22:37;53.97;;;25.63;;
26951;SDS011;14507;52.418;13.398;2023-03-01T06:25:03;57.60;;;25.70;;
26951;SDS011;14507;52.418;13.398;2023-03-01T06:27:30;57.08;;;25.85;;
26951;SDS011;14507;52.418;13.398;2023-03-01T06:29:55;54.95;;;25.45;;
26951;SDS011;14507;52.418;13.398;2023-03-01T06:32:21;50.63;;;24.15;;
26951;SDS011;14507;52.418;13.398;2023-03-01T06:34:47;56.03;;;25.05;;
26951;SDS011;14507;52.418;13.398;2023-03-01T06:37:12;57.22;;;26.00;;
26951;SDS011;14507;52.418;13.398;2023-03-01T06:39:38;51.33;;;25.75;;
26951;SDS011;14507;52.418;13.398;2023-03-01T06:42:04;54.25;;;25.23;;
26951;SDS011;14507;52.418;13.398;2023-03-01T06:44:29;56.63;;;25.10;;
26951;SDS011;14507;52.418;13.398;2023-03-01T06:46:55;57.55;;;26.08;;
26951;SDS011;14507;52.418;13.398;2023-03-01T06:49:21;52.45;;;25.33;;
26951;SDS011;14507;52.418;13.398;2023-03-01T06:51:46;56.90;;;25.67;;
26951;SDS011;14507;52.418;13.398;2023-03-01T06:54:12;56.20;;;25.58;;
26951;SDS011;14507;52.418;13.398;2023-03-01T06:56:38;54.08;;;27.60;;
26951;SDS011;14507;52.418;13.398;2023-03-01T06:59:04;56.50;;;25.58;;
26951;SDS011;14507;52.418;13.398;2023-03-01T07:01:30;55.92;;;24.02;;
26951;SDS011;14507;52.418;13.398;2023-03-01T07:03:56;49.67;;;23.10;;
26951;SDS011;14507;52.418;13.398;2023-03-01T07:06:22;59.65;;;25.02;;
26951;SDS011;14507;52.418;13.398;2023-03-01T07:08:48;52.20;;;25.02;;
26951;SDS011;14507;52.418;13.398;2023-03-01T07:11:14;53.53;;;25.48;;
26951;SDS011;14507;52.418;13.398;2023-03-01T07:13:40;56.15;;;24.00;;
26951;SDS011;14507;52.418;13.398;2023-03-01T07:16:06;45.20;;;22.25;;
26951;SDS011;14507;52.418;13.398;2023-03-01T07:18:32;48.83;;;23.63;;
26951;SDS011;14507;52.418;13.398;2023-03-01T07:20:58;45.17;;;22.63;;
26951;SDS011;14507;52.418;13.398;2023-03-01T07:23:28;51.75;;;24.73;;
26951;SDS011;14507;52.418;13.398;2023-03-01T07:25:54;52.03;;;24.30;;
26951;SDS011;14507;52.418;13.398;2023-03-01T07:28:22;50.80;;;25.60;;
26951;SDS011;14507;52.418;13.398;2023-03-01T07:30:48;49.72;;;25.90;;
26951;SDS011;14507;52.418;13.398;2023-03-01T07:33:14;54.90;;;25.83;;
26951;SDS011;14507;52.418;13.398;2023-03-01T07:35:39;56.20;;;27.67;;
26951;SDS011;14507;52.418;13.398;2023-03-01T07:38:05;57.67;;;27.45;;
26951;SDS011;14507;52.418;13.398;2023-03-01T07:40:31;55.90;;;26.85;;
26951;SDS011;14507;52.418;13.398;2023-03-01T07:42:57;55.63;;;26.08;;
26951;SDS011;14507;52.418;13.398;2023-03-01T07:45:24;50.60;;;24.92;;
26951;SDS011;14507;52.418;13.398;2023-03-01T07:47:50;48.67;;;23.13;;
26951;SDS011;14507;52.418;13.398;2023-03-01T07:50:17;46.83;;;23.27;;
26951;SDS011;14507;52.418;13.398;2023-03-01T07:52:45;42.03;;;21.48;;
26951;SDS011;14507;52.418;13.398;2023-03-01T07:55:11;43.55;;;20.83;;
26951;SDS011;14507;52.418;13.398;2023-03-01T07:57:37;51.05;;;24.40;;
26951;SDS011;14507;52.418;13.398;2023-03-01T08:00:03;41.03;;;20.13;;
26951;SDS011;14507;52.418;13.398;2023-03-01T08:02:30;49.10;;;20.17;;
26951;SDS011;14507;52.418;13.398;2023-03-01T08:04:56;48.28;;;22.02;;
26951;SDS011;14507;52.418;13.398;2023-03-01T08:07:22;41.67;;;20.98;;
26951;SDS011;14507;52.418;13.398;2023-03-01T08:09:47;43.53;;;20.65;;
26951;SDS011;14507;52.418;13.398;2023-03-01T08:12:13;44.08;;;21.58;;
26951;SDS011;14507;52.418;13.398;2023-03-01T08:14:41;40.03;;;20.15;;
26951;SDS011;14507;52.418;13.398;2023-03-01T08:17:06;37.33;;;18.90;;
26951;SDS011;14507;52.418;13.398;2023-03-01T08:19:32;35.88;;;18.88;;
26951;SDS011;14507;52.418;13.398;2023-03-01T08:21:59;39.00;;;17.67;;
26951;SDS011;14507;52.418;13.398;2023-03-01T08:24:28;34.60;;;16.98;;
26951;SDS011;14507;52.418;13.398;2023-03-01T08:26:54;27.90;;;15.00;;
26951;SDS011;14507;52.418;13.398;2023-03-01T08:29:20;26.73;;;14.65;;
26951;SDS011;14507;52.418;13.398;2023-03-01T08:31:46;33.58;;;14.32;;
26951;SDS011;14507;52.418;13.398;2023-03-01T08:34:13;27.67;;;14.45;;
26951;SDS011;14507;52.418;13.398;2023-03-01T08:36:44;27.10;;;14.02;;
26951;SDS011;14507;52.418;13.398;2023-03-01T08:39:12;27.40;;;15.30;;
26951;SDS011;14507;52.418;13.398;2023-03-01T08:41:39;25.17;;;14.25;;
26951;SDS011;14507;52.418;13.398;2023-03-01T08:44:05;25.67;;;13.68;;
26951;SDS011;14507;52.418;13.398;2023-03-01T08:46:33;28.50;;;14.98;;
26951;SDS011;14507;52.418;13.398;2023-03-01T08:49:04;23.58;;;12.55;;
26951;SDS011;14507;52.418;13.398;2023-03-01T08:51:31;20.70;;;11.95;;
26951;SDS011;14507;52.418;13.398;2023-03-01T08:54:01;26.45;;;12.00;;
26951;SDS011;14507;52.418;13.398;2023-03-01T08:56:28;20.40;;;11.18;;
26951;SDS011;14507;52.418;13.398;2023-03-01T08:58:54;23.33;;;10.73;;
26951;SDS011;14507;52.418;13.398;2023-03-01T09:01:19;27.00;;;12.52;;
26951;SDS011;14507;52.418;13.398;2023-03-01T09:03:45;15.68;;;8.85;;
26951;SDS011;14507;52.418;13.398;2023-03-01T09:06:11;17.58;;;9.80;;
26951;SDS011;14507;52.418;13.398;2023-03-01T09:08:41;19.73;;;10.13;;
26951;SDS011;14507;52.418;13.398;2023-03-01T09:11:09;24.77;;;9.35;;
26951;SDS011;14507;52.418;13.398;2023-03-01T09:13:36;18.08;;;9.52;;
26951;SDS011;14507;52.418;13.398;2023-03-01T09:16:03;30.70;;;9.95;;
26951;SDS011;14507;52.418;13.398;2023-03-01T09:18:31;24.15;;;9.30;;
26951;SDS011;14507;52.418;13.398;2023-03-01T09:21:02;17.27;;;8.45;;
26951;SDS011;14507;52.418;13.398;2023-03-01T09:23:36;17.45;;;8.65;;
26951;SDS011;14507;52.418;13.398;2023-03-01T09:26:37;16.98;;;9.02;;
26951;SDS011;14507;52.418;13.398;2023-03-01T09:28:56;16.58;;;7.10;;
26951;SDS011;14507;52.418;13.398;2023-03-01T09:31:23;16.40;;;7.82;;
26951;SDS011;14507;52.418;13.398;2023-03-01T09:33:50;17.52;;;7.95;;
26951;SDS011;14507;52.418;13.398;2023-03-01T09:38:45;10.90;;;5.53;;
26951;SDS011;14507;52.418;13.398;2023-03-01T09:43:59;13.32;;;6.70;;
26951;SDS011;14507;52.418;13.398;2023-03-01T09:46:38;15.45;;;8.45;;
26951;SDS011;14507;52.418;13.398;2023-03-01T09:49:12;21.83;;;9.25;;
26951;SDS011;14507;52.418;13.398;2023-03-01T09:52:06;16.92;;;6.68;;
26951;SDS011;14507;52.418;13.398;2023-03-01T09:54:47;14.85;;;6.60;;
26951;SDS011;14507;52.418;13.398;2023-03-01T10:02:43;9.35;;;5.95;;
26951;SDS011;14507;52.418;13.398;2023-03-01T10:10:54;12.43;;;5.68;;
26951;SDS011;14507;52.418;13.398;2023-03-01T10:13:32;9.88;;;5.32;;
26951;SDS011;14507;52.418;13.398;2023-03-01T10:20:05;13.60;;;6.80;;
26951;SDS011;14507;52.418;13.398;2023-03-01T10:22:15;14.52;;;6.50;;
26951;SDS011;14507;52.418;13.398;2023-03-01T10:24:46;14.63;;;7.10;;
26951;SDS011;14507;52.418;13.398;2023-03-01T10:32:15;14.82;;;6.68;;
26951;SDS011;14507;52.418;13.398;2023-03-01T10:34:43;12.63;;;6.80;;
26951;SDS011;14507;52.418;13.398;2023-03-01T10:42:35;22.20;;;8.27;;
26951;SDS011;14507;52.418;13.398;2023-03-01T10:48:03;16.87;;;6.90;;
26951;SDS011;14507;52.418;13.398;2023-03-01T10:51:04;14.45;;;7.05;;
26951;SDS011;14507;52.418;13.398;2023-03-01T10:53:38;16.33;;;8.60;;
26951;SDS011;14507;52.418;13.398;2023-03-01T10:56:08;18.27;;;8.45;;
26951;SDS011;14507;52.418;13.398;2023-03-01T10:58:37;16.88;;;8.45;;
26951;SDS011;14507;52.418;13.398;2023-03-01T11:01:27;14.65;;;8.35;;
26951;SDS011;14507;52.418;13.398;2023-03-01T11:08:56;18.55;;;9.70;;
26951;SDS011;14507;52.418;13.398;2023-03-01T11:11:31;24.45;;;11.35;;
26951;SDS011;14507;52.418;13.398;2023-03-01T11:19:42;24.50;;;10.57;;
26951;SDS011;14507;52.418;13.398;2023-03-01T11:22:16;23.45;;;11.48;;
26951;SDS011;14507;52.418;13.398;2023-03-01T11:24:46;25.60;;;11.52;;
26951;SDS011;14507;52.418;13.398;2023-03-01T11:27:23;22.55;;;10.82;;
26951;SDS011;14507;52.418;13.398;2023-03-01T11:29:57;27.00;;;10.77;;
26951;SDS011;14507;52.418;13.398;2023-03-01T11:32:41;20.63;;;9.98;;
26951;SDS011;14507;52.418;13.398;2023-03-01T11:35:14;22.77;;;11.15;;
26951;SDS011;14507;52.418;13.398;2023-03-01T11:50:56;17.92;;;7.88;;
26951;SDS011;14507;52.418;13.398;2023-03-01T12:09:02;13.75;;;6.72;;
26951;SDS011;14507;52.418;13.398;2023-03-01T12:17:24;14.07;;;6.10;;
26951;SDS011;14507;52.418;13.398;2023-03-01T12:22:46;20.85;;;5.30;;
26951;SDS011;14507;52.418;13.398;2023-03-01T12:25:34;15.25;;;5.28;;
26951;SDS011;14507;52.418;13.398;2023-03-01T12:38:32;14.23;;;4.78;;
26951;SDS011;14507;52.418;13.398;2023-03-01T12:41:08;10.57;;;4.43;;
26951;SDS011;14507;52.418;13.398;2023-03-01T12:49:49;8.82;;;3.58;;
26951;SDS011;14507;52.418;13.398;2023-03-01T12:54:47;11.25;;;4.30;;
26951;SDS011;14507;52.418;13.398;2023-03-01T12:57:21;9.60;;;3.83;;
26951;SDS011;14507;52.418;13.398;2023-03-01T13:02:54;11.25;;;4.10;;
26951;SDS011;14507;52.418;13.398;2023-03-01T13:05:42;9.07;;;4.00;;
26951;SDS011;14507;52.418;13.398;2023-03-01T13:08:37;8.88;;;3.85;;
26951;SDS011;14507;52.418;13.398;2023-03-01T13:11:15;9.85;;;3.63;;
26951;SDS011;14507;52.418;13.398;2023-03-01T13:21:35;9.27;;;3.15;;
26951;SDS011;14507;52.418;13.398;2023-03-01T13:24:00;8.18;;;2.92;;
26951;SDS011;14507;52.418;13.398;2023-03-01T13:26:26;10.40;;;3.40;;
26951;SDS011;14507;52.418;13.398;2023-03-01T13:28:55;8.80;;;3.72;;
26951;SDS011;14507;52.418;13.398;2023-03-01T13:33:54;8.48;;;3.47;;
26951;SDS011;14507;52.418;13.398;2023-03-01T13:39:12;9.02;;;3.58;;
26951;SDS011;14507;52.418;13.398;2023-03-01T13:41:54;7.63;;;3.40;;
26951;SDS011;14507;52.418;13.398;2023-03-01T13:49:31;8.35;;;3.33;;
26951;SDS011;14507;52.418;13.398;2023-03-01T13:55:00;8.98;;;3.17;;
26951;SDS011;14507;52.418;13.398;2023-03-01T13:57:30;5.60;;;2.80;;
26951;SDS011;14507;52.418;13.398;2023-03-01T13:59:59;10.10;;;2.95;;
26951;SDS011;14507;52.418;13.398;2023-03-01T14:02:25;8.38;;;3.05;;
26951;SDS011;14507;52.418;13.398;2023-03-01T14:05:00;10.02;;;3.40;;
26951;SDS011;14507;52.418;13.398;2023-03-01T14:07:27;7.60;;;3.15;;
26951;SDS011;14507;52.418;13.398;2023-03-01T14:09:58;11.20;;;3.30;;
26951;SDS011;14507;52.418;13.398;2023-03-01T14:15:22;8.20;;;3.20;;
26951;SDS011;14507;52.418;13.398;2023-03-01T14:20:49;14.32;;;3.35;;
26951;SDS011;14507;52.418;13.398;2023-03-01T14:23:20;8.98;;;3.08;;
26951;SDS011;14507;52.418;13.398;2023-03-01T14:25:48;5.55;;;2.72;;
26951;SDS011;14507;52.418;13.398;2023-03-01T14:28:18;7.50;;;3.40;;
26951;SDS011;14507;52.418;13.398;2023-03-01T14:30:55;11.05;;;3.35;;
26951;SDS011;14507;52.418;13.398;2023-03-01T14:33:24;8.77;;;2.88;;
26951;SDS011;14507;52.418;13.398;2023-03-01T14:35:58;7.82;;;3.28;;
26951;SDS011;14507;52.418;13.398;2023-03-01T14:41:13;9.57;;;3.30;;
26951;SDS011;14507;52.418;13.398;2023-03-01T14:43:49;8.95;;;3.05;;
26951;SDS011;14507;52.418;13.398;2023-03-01T14:46:33;10.77;;;3.17;;
26951;SDS011;14507;52.418;13.398;2023-03-01T14:51:42;5.95;;;3.03;;
26951;SDS011;14507;52.418;13.398;2023-03-01T14:54:57;6.47;;;2.60;;
26951;SDS011;14507;52.418;13.398;2023-03-01T14:57:14;9.10;;;3.00;;
26951;SDS011;14507;52.418;13.398;2023-03-01T14:59:41;9.13;;;3.25;;
26951;SDS011;14507;52.418;13.398;2023-03-01T15:02:08;7.03;;;3.72;;
26951;SDS011;14507;52.418;13.398;2023-03-01T15:04:41;9.38;;;3.67;;
26951;SDS011;14507;52.418;13.398;2023-03-01T15:07:19;8.47;;;3.70;;
26951;SDS011;14507;52.418;13.398;2023-03-01T15:09:45;8.10;;;3.67;;
26951;SDS011;14507;52.418;13.398;2023-03-01T15:12:24;8.63;;;3.20;;
26951;SDS011;14507;52.418;13.398;2023-03-01T15:14:53;7.10;;;3.30;;
26951;SDS011;14507;52.418;13.398;2023-03-01T15:17:21;7.47;;;3.53;;
26951;SDS011;14507;52.418;13.398;2023-03-01T15:20:03;8.95;;;3.50;;
26951;SDS011;14507;52.418;13.398;2023-03-01T15:22:31;9.82;;;3.55;;
26951;SDS011;14507;52.418;13.398;2023-03-01T15:24:57;7.68;;;3.13;;
26951;SDS011;14507;52.418;13.398;2023-03-01T15:27:24;6.25;;;3.55;;
26951;SDS011;14507;52.418;13.398;2023-03-01T15:32:29;6.28;;;3.40;;
26951;SDS011;14507;52.418;13.398;2023-03-01T15:34:56;7.90;;;3.55;;
26951;SDS011;14507;52.418;13.398;2023-03-01T15:37:36;11.77;;;3.97;;
26951;SDS011;14507;52.418;13.398;2023-03-01T15:40:16;12.02;;;4.03;;
26951;SDS011;14507;52.418;13.398;2023-03-01T15:42:45;8.93;;;3.22;;
26951;SDS011;14507;52.418;13.398;2023-03-01T15:45:20;7.28;;;3.55;;
26951;SDS011;14507;52.418;13.398;2023-03-01T15:47:47;8.82;;;3.72;;
26951;SDS011;14507;52.418;13.398;2023-03-01T15:50:28;9.88;;;3.78;;
26951;SDS011;14507;52.418;13.398;2023-03-01T15:53:04;9.48;;;3.75;;
26951;SDS011;14507;52.418;13.398;2023-03-01T15:55:33;10.32;;;3.58;;
26951;SDS011;14507;52.418;13.398;2023-03-01T16:00:47;9.80;;;3.58;;
26951;SDS011;14507;52.418;13.398;2023-03-01T16:03:13;8.40;;;3.10;;
26951;SDS011;14507;52.418;13.398;2023-03-01T16:05:46;7.40;;;3.33;;
26951;SDS011;14507;52.418;13.398;2023-03-01T16:08:13;8.27;;;2.70;;
26951;SDS011;14507;52.418;13.398;2023-03-01T16:10:38;4.22;;;2.50;;
26951;SDS011;14507;52.418;13.398;2023-03-01T16:13:06;5.20;;;2.27;;
26951;SDS011;14507;52.418;13.398;2023-03-01T16:15:33;4.63;;;2.33;;
26951;SDS011;14507;52.418;13.398;2023-03-01T16:18:03;3.88;;;2.20;;
26951;SDS011;14507;52.418;13.398;2023-03-01T16:20:30;9.02;;;2.67;;
26951;SDS011;14507;52.418;13.398;2023-03-01T16:23:00;6.10;;;2.72;;
26951;SDS011;14507;52.418;13.398;2023-03-01T16:25:27;5.88;;;2.40;;
26951;SDS011;14507;52.418;13.398;2023-03-01T16:27:55;7.93;;;2.57;;
26951;SDS011;14507;52.418;13.398;2023-03-01T16:30:23;7.07;;;2.45;;
26951;SDS011;14507;52.418;13.398;2023-03-01T16:32:49;5.50;;;2.42;;
26951;SDS011;14507;52.418;13.398;2023-03-01T16:35:17;7.10;;;2.58;;
26951;SDS011;14507;52.418;13.398;2023-03-01T16:37:45;8.35;;;2.85;;
26951;SDS011;14507;52.418;13.398;2023-03-01T16:40:22;6.93;;;3.13;;
26951;SDS011;14507;52.418;13.398;2023-03-01T16:42:49;7.03;;;2.60;;
26951;SDS011;14507;52.418;13.398;2023-03-01T16:45:16;6.57;;;3.00;;
26951;SDS011;14507;52.418;13.398;2023-03-01T16:47:42;6.05;;;2.85;;
26951;SDS011;14507;52.418;13.398;2023-03-01T16:50:08;7.57;;;2.90;;
26951;SDS011;14507;52.418;13.398;2023-03-01T16:52:34;10.88;;;3.40;;
26951;SDS011;14507;52.418;13.398;2023-03-01T16:55:00;10.13;;;3.10;;
26951;SDS011;14507;52.418;13.398;2023-03-01T16:57:28;4.45;;;2.47;;
26951;SDS011;14507;52.418;13.398;2023-03-01T16:59:55;7.15;;;2.60;;
26951;SDS011;14507;52.418;13.398;2023-03-01T17:02:20;8.95;;;2.92;;
26951;SDS011;14507;52.418;13.398;2023-03-01T17:04:53;6.55;;;2.90;;
26951;SDS011;14507;52.418;13.398;2023-03-01T17:07:20;8.20;;;2.80;;
26951;SDS011;14507;52.418;13.398;2023-03-01T17:09:46;9.50;;;3.70;;